^^
Station Historical Data
Daily Summary for January 20, 2018 Units:  Both    English   Metric
« Previous Day
Next Day »
Daily Weekly Monthly Yearly Custom
  High: Low: Average:
Temperature: TemperatureF °F /  -17.8 °C 68.5 °F /  20.3 °C 73.5 °F /  23.1 °C
Dew Point: DewpointF °F /  -17.8 °C 48.6 °F /  9.2 °C 50.9 °F /  10.5 °C
Humidity: Humidity% 36% 45%
Wind Speed: WindSpeedMPHmph /  0km/h - 2.9mph /  4.7km/h
Wind Gust: WindSpeedGustMPHmph /  0km/h - -
Wind- - ENE
Pressure: PressureIn in /  0 hPa 29.57 in /  1001.2 hPa -
Precipitation: 0.00 in /  0 mm    
Historical Graphs
 
 
Tabular Data for January 20, 2018
Time Temperature Dew Point Pressure Wind Wind Speed Wind Gust Humidity Rainfall Rate (Hourly) solar Conditions
TemperatureF °F /  -17.8 °C DewpointF °F /  -17.8 °C PressureInin /  0hPa Calm     Humidity% HourlyPrecipInin /  0mm SoftwareType W/m2 Conditions
09:59 69.1 °F /  20.6 °C 50.7 °F /  10.4 °C 29.59in /  1001.9hPa NNE 2.9mph /  4.7km/h 4.0mph /  6.4km/h 52% 0.00in /  0mm meteobridge W/m2
10:05 69.4 °F /  20.8 °C 52.2 °F /  11.2 °C 29.59in /  1001.9hPa NE 4.0mph /  6.4km/h 9.0mph /  14.5km/h 54% 0.00in /  0mm meteobridge W/m2
10:12 69.4 °F /  20.8 °C 51.6 °F /  10.9 °C 29.59in /  1001.9hPa ENE 6.0mph /  9.7km/h 6.0mph /  9.7km/h 53% 0.00in /  0mm meteobridge W/m2
10:18 70.0 °F /  21.1 °C 51.6 °F /  10.9 °C 29.59in /  1001.9hPa NE 4.9mph /  7.9km/h 5.0mph /  8km/h 52% 0.00in /  0mm meteobridge W/m2
10:24 71.1 °F /  21.7 °C 51.4 °F /  10.8 °C 29.59in /  1001.9hPa Calm   6.0mph /  9.7km/h 50% 0.00in /  0mm meteobridge W/m2
10:30 71.8 °F /  22.1 °C 51.6 °F /  10.9 °C 29.59in /  1001.9hPa NE 2.9mph /  4.7km/h 5.0mph /  8km/h 49% 0.00in /  0mm meteobridge W/m2
10:36 71.6 °F /  22 °C 51.4 °F /  10.8 °C 29.59in /  1001.9hPa NE 6.9mph /  11.1km/h 8.0mph /  12.9km/h 49% 0.00in /  0mm meteobridge W/m2
10:42 71.2 °F /  21.8 °C 51.6 °F /  10.9 °C 29.59in /  1001.9hPa NE 2.9mph /  4.7km/h 11.0mph /  17.7km/h 50% 0.00in /  0mm meteobridge W/m2
10:48 71.6 °F /  22 °C 52.0 °F /  11.1 °C 29.59in /  1001.9hPa NNE 2.9mph /  4.7km/h 4.0mph /  6.4km/h 50% 0.00in /  0mm meteobridge W/m2
10:55 72.3 °F /  22.4 °C 51.4 °F /  10.8 °C 29.59in /  1001.9hPa NNE 4.0mph /  6.4km/h 10.0mph /  16.1km/h 48% 0.00in /  0mm meteobridge W/m2
11:01 72.5 °F /  22.5 °C 50.5 °F /  10.3 °C 29.59in /  1001.9hPa NE 6.9mph /  11.1km/h 11.0mph /  17.7km/h 46% 0.00in /  0mm meteobridge W/m2
11:07 72.7 °F /  22.6 °C 50.2 °F /  10.1 °C 29.59in /  1001.9hPa ENE 4.9mph /  7.9km/h 10.0mph /  16.1km/h 45% 0.00in /  0mm meteobridge W/m2
11:13 73.0 °F /  22.8 °C 49.3 °F /  9.6 °C 29.59in /  1001.9hPa NE 4.0mph /  6.4km/h 7.0mph /  11.3km/h 43% 0.00in /  0mm meteobridge W/m2
11:19 73.8 °F /  23.2 °C 48.6 °F /  9.2 °C 29.59in /  1001.9hPa NNE 12.1mph /  19.5km/h 12.1mph /  19.5km/h 41% 0.00in /  0mm meteobridge W/m2
11:25 73.8 °F /  23.2 °C 51.6 °F /  10.9 °C 29.59in /  1001.9hPa NNE 10.1mph /  16.3km/h 15.0mph /  24.1km/h 46% 0.00in /  0mm meteobridge W/m2
11:32 72.9 °F /  22.7 °C 52.5 °F /  11.4 °C 29.60in /  1002.3hPa NNE 6.0mph /  9.7km/h 9.0mph /  14.5km/h 49% 0.00in /  0mm meteobridge W/m2
11:38 72.3 °F /  22.4 °C 52.7 °F /  11.5 °C 29.60in /  1002.3hPa NE 8.1mph /  13km/h 11.0mph /  17.7km/h 50% 0.00in /  0mm meteobridge W/m2
11:44 72.0 °F /  22.2 °C 52.9 °F /  11.6 °C 29.60in /  1002.3hPa NE 4.9mph /  7.9km/h 7.0mph /  11.3km/h 51% 0.00in /  0mm meteobridge W/m2
11:50 72.0 °F /  22.2 °C 52.9 °F /  11.6 °C 29.60in /  1002.3hPa NE 6.9mph /  11.1km/h 10.0mph /  16.1km/h 51% 0.00in /  0mm meteobridge W/m2
11:56 71.8 °F /  22.1 °C 52.2 °F /  11.2 °C 29.60in /  1002.3hPa NE 4.9mph /  7.9km/h 9.0mph /  14.5km/h 50% 0.00in /  0mm meteobridge W/m2
12:02 71.6 °F /  22 °C 52.5 °F /  11.4 °C 29.59in /  1001.9hPa NE 6.0mph /  9.7km/h 8.0mph /  12.9km/h 51% 0.00in /  0mm meteobridge W/m2
12:08 71.2 °F /  21.8 °C 52.2 °F /  11.2 °C 29.59in /  1001.9hPa NE 4.0mph /  6.4km/h 7.0mph /  11.3km/h 51% 0.00in /  0mm meteobridge W/m2
12:14 70.9 °F /  21.6 °C 51.8 °F /  11 °C 29.59in /  1001.9hPa NNE 4.9mph /  7.9km/h 11.0mph /  17.7km/h 51% 0.00in /  0mm meteobridge W/m2
12:20 70.5 °F /  21.4 °C 52.5 °F /  11.4 °C 29.59in /  1001.9hPa NNE 4.9mph /  7.9km/h 7.0mph /  11.3km/h 53% 0.00in /  0mm meteobridge W/m2
12:26 69.8 °F /  21 °C 52.0 °F /  11.1 °C 29.60in /  1002.3hPa ENE 2.0mph /  3.2km/h 9.0mph /  14.5km/h 53% 0.00in /  0mm meteobridge W/m2
12:32 70.0 °F /  21.1 °C 54.5 °F /  12.5 °C 29.60in /  1002.3hPa Calm   1.0mph /  1.6km/h 58% 0.00in /  0mm meteobridge W/m2
12:39 69.8 °F /  21 °C 55.2 °F /  12.9 °C 29.60in /  1002.3hPa Calm   3.0mph /  4.8km/h 60% 0.00in /  0mm meteobridge W/m2
12:45 69.1 °F /  20.6 °C 54.7 °F /  12.6 °C 29.60in /  1002.3hPa ENE 0.9mph /  1.4km/h 3.0mph /  4.8km/h 60% 0.00in /  0mm meteobridge W/m2
12:51 68.5 °F /  20.3 °C 54.5 °F /  12.5 °C 29.60in /  1002.3hPa ENE 0.9mph /  1.4km/h 2.0mph /  3.2km/h 61% 0.00in /  0mm meteobridge W/m2
12:57 68.5 °F /  20.3 °C 52.7 °F /  11.5 °C 29.60in /  1002.3hPa Calm     57% 0.00in /  0mm meteobridge W/m2
13:03 69.4 °F /  20.8 °C 52.5 °F /  11.4 °C 29.60in /  1002.3hPa ENE 2.0mph /  3.2km/h 3.0mph /  4.8km/h 55% 0.00in /  0mm meteobridge W/m2
13:10 70.3 °F /  21.3 °C 53.4 °F /  11.9 °C 29.60in /  1002.3hPa East 2.9mph /  4.7km/h 3.0mph /  4.8km/h 55% 0.00in /  0mm meteobridge W/m2
13:16 71.8 °F /  22.1 °C 52.7 °F /  11.5 °C 29.60in /  1002.3hPa East 0.9mph /  1.4km/h 3.0mph /  4.8km/h 51% 0.00in /  0mm meteobridge W/m2
13:22 73.2 °F /  22.9 °C 52.3 °F /  11.3 °C 29.60in /  1002.3hPa Calm   3.0mph /  4.8km/h 48% 0.00in /  0mm meteobridge W/m2
13:28 74.5 °F /  23.6 °C 52.3 °F /  11.3 °C 29.60in /  1002.3hPa SE 2.9mph /  4.7km/h 4.0mph /  6.4km/h 46% 0.00in /  0mm meteobridge W/m2
13:34 75.7 °F /  24.3 °C 51.6 °F /  10.9 °C 29.60in /  1002.3hPa Calm   5.0mph /  8km/h 43% 0.00in /  0mm meteobridge W/m2
13:40 77.2 °F /  25.1 °C 51.6 °F /  10.9 °C 29.60in /  1002.3hPa SE 0.9mph /  1.4km/h 4.0mph /  6.4km/h 41% 0.00in /  0mm meteobridge W/m2
13:46 77.2 °F /  25.1 °C 51.6 °F /  10.9 °C 29.59in /  1001.9hPa Calm   2.0mph /  3.2km/h 41% 0.00in /  0mm meteobridge W/m2
13:53 77.4 °F /  25.2 °C 51.8 °F /  11 °C 29.59in /  1001.9hPa Calm   4.0mph /  6.4km/h 41% 0.00in /  0mm meteobridge W/m2
13:59 79.2 °F /  26.2 °C 51.4 °F /  10.8 °C 29.59in /  1001.9hPa ENE 2.0mph /  3.2km/h 2.0mph /  3.2km/h 38% 0.00in /  0mm meteobridge W/m2
14:05 80.1 °F /  26.7 °C 50.7 °F /  10.4 °C 29.59in /  1001.9hPa East 2.9mph /  4.7km/h 3.0mph /  4.8km/h 36% 0.00in /  0mm meteobridge W/m2
14:11 78.4 °F /  25.8 °C 50.0 °F /  10 °C 29.59in /  1001.9hPa North 2.0mph /  3.2km/h 9.0mph /  14.5km/h 37% 0.00in /  0mm meteobridge W/m2
14:17 77.0 °F /  25 °C 50.2 °F /  10.1 °C 29.59in /  1001.9hPa ENE 2.9mph /  4.7km/h 5.0mph /  8km/h 39% 0.00in /  0mm meteobridge W/m2
14:23 77.0 °F /  25 °C 50.2 °F /  10.1 °C 29.59in /  1001.9hPa NE 2.9mph /  4.7km/h 4.0mph /  6.4km/h 39% 0.00in /  0mm meteobridge W/m2
14:29 77.7 °F /  25.4 °C 50.7 °F /  10.4 °C 29.59in /  1001.9hPa North 2.9mph /  4.7km/h 10.0mph /  16.1km/h 39% 0.00in /  0mm meteobridge W/m2
14:35 77.5 °F /  25.3 °C 50.5 °F /  10.3 °C 29.58in /  1001.6hPa NNE 6.0mph /  9.7km/h 12.0mph /  19.3km/h 39% 0.00in /  0mm meteobridge W/m2
14:41 76.8 °F /  24.9 °C 50.7 °F /  10.4 °C 29.59in /  1001.9hPa North 8.9mph /  14.3km/h 9.0mph /  14.5km/h 40% 0.00in /  0mm meteobridge W/m2
14:47 76.8 °F /  24.9 °C 50.7 °F /  10.4 °C 29.59in /  1001.9hPa NE 6.0mph /  9.7km/h 11.0mph /  17.7km/h 40% 0.00in /  0mm meteobridge W/m2
14:54 76.6 °F /  24.8 °C 50.5 °F /  10.3 °C 29.59in /  1001.9hPa NNE 6.0mph /  9.7km/h 7.0mph /  11.3km/h 40% 0.00in /  0mm meteobridge W/m2
15:00 76.5 °F /  24.7 °C 51.1 °F /  10.6 °C 29.59in /  1001.9hPa NE 4.9mph /  7.9km/h 5.0mph /  8km/h 41% 0.00in /  0mm meteobridge W/m2
15:06 76.8 °F /  24.9 °C 51.3 °F /  10.7 °C 29.58in /  1001.6hPa NNE 4.0mph /  6.4km/h 5.0mph /  8km/h 41% 0.00in /  0mm meteobridge W/m2
15:12 77.2 °F /  25.1 °C 51.6 °F /  10.9 °C 29.58in /  1001.6hPa NNE 10.1mph /  16.3km/h 13.0mph /  20.9km/h 41% 0.00in /  0mm meteobridge W/m2
15:18 76.1 °F /  24.5 °C 51.3 °F /  10.7 °C 29.58in /  1001.6hPa ENE 2.0mph /  3.2km/h 11.0mph /  17.7km/h 42% 0.00in /  0mm meteobridge W/m2
15:24 76.3 °F /  24.6 °C 52.7 °F /  11.5 °C 29.58in /  1001.6hPa NNE 6.9mph /  11.1km/h 7.0mph /  11.3km/h 44% 0.00in /  0mm meteobridge W/m2
15:30 75.6 °F /  24.2 °C 52.7 °F /  11.5 °C 29.58in /  1001.6hPa NNE 0.9mph /  1.4km/h 6.0mph /  9.7km/h 45% 0.00in /  0mm meteobridge W/m2
15:37 75.0 °F /  23.9 °C 52.2 °F /  11.2 °C 29.58in /  1001.6hPa NE 2.9mph /  4.7km/h 4.0mph /  6.4km/h 45% 0.00in /  0mm meteobridge W/m2
15:42 74.8 °F /  23.8 °C 52.2 °F /  11.2 °C 29.58in /  1001.6hPa NE 0.9mph /  1.4km/h 2.0mph /  3.2km/h 45% 0.00in /  0mm meteobridge W/m2
15:49 74.8 °F /  23.8 °C 52.2 °F /  11.2 °C 29.58in /  1001.6hPa NE 2.0mph /  3.2km/h 4.0mph /  6.4km/h 45% 0.00in /  0mm meteobridge W/m2
15:55 74.8 °F /  23.8 °C 51.4 °F /  10.8 °C 29.58in /  1001.6hPa NE 2.0mph /  3.2km/h 5.0mph /  8km/h 44% 0.00in /  0mm meteobridge W/m2
16:01 74.8 °F /  23.8 °C 52.2 °F /  11.2 °C 29.57in /  1001.2hPa NE 2.9mph /  4.7km/h 4.0mph /  6.4km/h 45% 0.00in /  0mm meteobridge W/m2
16:07 74.8 °F /  23.8 °C 51.4 °F /  10.8 °C 29.57in /  1001.2hPa Calm   2.0mph /  3.2km/h 44% 0.00in /  0mm meteobridge W/m2
16:13 75.0 °F /  23.9 °C 51.6 °F /  10.9 °C 29.58in /  1001.6hPa Calm   4.0mph /  6.4km/h 44% 0.00in /  0mm meteobridge W/m2
16:19 75.0 °F /  23.9 °C 51.6 °F /  10.9 °C 29.57in /  1001.2hPa NNE 2.9mph /  4.7km/h 4.0mph /  6.4km/h 44% 0.00in /  0mm meteobridge W/m2
16:25 75.2 °F /  24 °C 51.8 °F /  11 °C 29.57in /  1001.2hPa Calm   1.0mph /  1.6km/h 44% 0.00in /  0mm meteobridge W/m2
16:31 75.4 °F /  24.1 °C 52.0 °F /  11.1 °C 29.57in /  1001.2hPa Calm   1.0mph /  1.6km/h 44% 0.00in /  0mm meteobridge W/m2
16:37 75.4 °F /  24.1 °C 52.0 °F /  11.1 °C 29.57in /  1001.2hPa ESE 2.9mph /  4.7km/h 3.0mph /  4.8km/h 44% 0.00in /  0mm meteobridge W/m2
16:44 75.0 °F /  23.9 °C 51.1 °F /  10.6 °C 29.57in /  1001.2hPa Calm   3.0mph /  4.8km/h 43% 0.00in /  0mm meteobridge W/m2
16:50 74.8 °F /  23.8 °C 51.4 °F /  10.8 °C 29.57in /  1001.2hPa Calm   2.0mph /  3.2km/h 44% 0.00in /  0mm meteobridge W/m2
16:56 74.8 °F /  23.8 °C 51.4 °F /  10.8 °C 29.57in /  1001.2hPa Calm     44% 0.00in /  0mm meteobridge W/m2
17:02 75.0 °F /  23.9 °C 51.6 °F /  10.9 °C 29.57in /  1001.2hPa SSE 0.9mph /  1.4km/h 3.0mph /  4.8km/h 44% 0.00in /  0mm meteobridge W/m2
17:08 75.6 °F /  24.2 °C 51.4 °F /  10.8 °C 29.57in /  1001.2hPa SSE 0.9mph /  1.4km/h 2.0mph /  3.2km/h 43% 0.00in /  0mm meteobridge W/m2
17:15 75.7 °F /  24.3 °C 51.1 °F /  10.6 °C 29.57in /  1001.2hPa SSE 0.9mph /  1.4km/h 1.0mph /  1.6km/h 42% 0.00in /  0mm meteobridge W/m2
17:21 75.7 °F /  24.3 °C 51.6 °F /  10.9 °C 29.57in /  1001.2hPa South 2.9mph /  4.7km/h 3.0mph /  4.8km/h 43% 0.00in /  0mm meteobridge W/m2
17:27 75.7 °F /  24.3 °C 51.6 °F /  10.9 °C 29.57in /  1001.2hPa Calm   1.0mph /  1.6km/h 43% 0.00in /  0mm meteobridge W/m2
17:33 75.7 °F /  24.3 °C 50.4 °F /  10.2 °C 29.57in /  1001.2hPa South 2.9mph /  4.7km/h 4.0mph /  6.4km/h 41% 0.00in /  0mm meteobridge W/m2
17:39 75.7 °F /  24.3 °C 50.4 °F /  10.2 °C 29.58in /  1001.6hPa Calm   2.0mph /  3.2km/h 41% 0.00in /  0mm meteobridge W/m2
17:46 76.5 °F /  24.7 °C 50.4 °F /  10.2 °C 29.58in /  1001.6hPa SSE 0.9mph /  1.4km/h 2.0mph /  3.2km/h 40% 0.00in /  0mm meteobridge W/m2
17:52 77.9 °F /  25.5 °C 50.9 °F /  10.5 °C 29.58in /  1001.6hPa Calm   1.0mph /  1.6km/h 39% 0.00in /  0mm meteobridge W/m2
17:58 78.6 °F /  25.9 °C 50.9 °F /  10.5 °C 29.58in /  1001.6hPa Calm     38% 0.00in /  0mm meteobridge W/m2
18:04 78.3 °F /  25.7 °C 51.3 °F /  10.7 °C 29.58in /  1001.6hPa SSE 2.9mph /  4.7km/h 5.0mph /  8km/h 39% 0.00in /  0mm meteobridge W/m2
18:11 77.4 °F /  25.2 °C 50.5 °F /  10.3 °C 29.57in /  1001.2hPa SSE 0.9mph /  1.4km/h 4.0mph /  6.4km/h 39% 0.00in /  0mm meteobridge W/m2
18:17 76.6 °F /  24.8 °C 49.8 °F /  9.9 °C 29.58in /  1001.6hPa SSE 0.9mph /  1.4km/h 2.0mph /  3.2km/h 39% 0.00in /  0mm meteobridge W/m2
18:23 76.3 °F /  24.6 °C 49.5 °F /  9.7 °C 29.58in /  1001.6hPa Calm     39% 0.00in /  0mm meteobridge W/m2
18:29 76.5 °F /  24.7 °C 50.4 °F /  10.2 °C 29.58in /  1001.6hPa SSE 0.9mph /  1.4km/h 2.0mph /  3.2km/h 40% 0.00in /  0mm meteobridge W/m2
18:36 76.6 °F /  24.8 °C 49.8 °F /  9.9 °C 29.59in /  1001.9hPa SSE 0.9mph /  1.4km/h 1.0mph /  1.6km/h 39% 0.00in /  0mm meteobridge W/m2
18:42 76.5 °F /  24.7 °C 49.6 °F /  9.8 °C 29.59in /  1001.9hPa SSE 2.0mph /  3.2km/h 3.0mph /  4.8km/h 39% 0.00in /  0mm meteobridge W/m2
18:48 76.1 °F /  24.5 °C 49.3 °F /  9.6 °C 29.59in /  1001.9hPa Calm   2.0mph /  3.2km/h 39% 0.00in /  0mm meteobridge W/m2
18:54 75.9 °F /  24.4 °C 50.5 °F /  10.3 °C 29.59in /  1001.9hPa North 6.9mph /  11.1km/h 7.0mph /  11.3km/h 41% 0.00in /  0mm meteobridge W/m2
19:00 75.4 °F /  24.1 °C 50.7 °F /  10.4 °C 29.59in /  1001.9hPa North 4.9mph /  7.9km/h 6.0mph /  9.7km/h 42% 0.00in /  0mm meteobridge W/m2
19:06 74.8 °F /  23.8 °C 50.9 °F /  10.5 °C 29.60in /  1002.3hPa North 4.9mph /  7.9km/h 6.0mph /  9.7km/h 43% 0.00in /  0mm meteobridge W/m2
19:12 74.3 °F /  23.5 °C 50.4 °F /  10.2 °C 29.60in /  1002.3hPa North 2.9mph /  4.7km/h 5.0mph /  8km/h 43% 0.00in /  0mm meteobridge W/m2
19:18 74.1 °F /  23.4 °C 50.2 °F /  10.1 °C 29.60in /  1002.3hPa North 2.9mph /  4.7km/h 4.0mph /  6.4km/h 43% 0.00in /  0mm meteobridge W/m2
19:24 73.9 °F /  23.3 °C 50.0 °F /  10 °C 29.60in /  1002.3hPa North 2.0mph /  3.2km/h 2.0mph /  3.2km/h 43% 0.00in /  0mm meteobridge W/m2
19:30 73.9 °F /  23.3 °C 50.0 °F /  10 °C 29.61in /  1002.6hPa North 2.0mph /  3.2km/h -999.0mph /  -1607.7km/h 43% 0.00in /  0mm meteobridge W/m2
19:37 73.9 °F /  23.3 °C 50.0 °F /  10 °C 29.61in /  1002.6hPa North 2.0mph /  3.2km/h -999.0mph /  -1607.7km/h 43% 0.00in /  0mm meteobridge W/m2
Regenstein, Windhoek, Namibia
Compliments of Weather Underground - 2.5 mb